Airfield :
LOGIN :

Register | Disclaimer

   EN    FR    IT 

 










Legend :    VFR   Marginal VFR   IFR   Intensive IFR   Very Intensive IFR
Visi :
Ceiling :
>= 8 km
>= 3000ft
5 to 8 km
1000 to 3000 ft
1500m to 5 km
500 to 1000 ft
800 to 1500m
200 to 500 ft
< 800m
< 200 ft
Symbols :   Thunderstorms  Fog  Heavy snow  Heavy precipitations  Wind > 20 kt
SIGMETs :     Misc.  Thunderstorms  Icing  Turbulence  Mountain Waves  Volcanic Ashes







- Airport Elevation : 233 ft
- IATA code : REU


LERS - Reus Tarragona

CURRENT METAR :
  • 230230Z AUTO 35005KT 320V020 9999 NCD 21/17 Q1020

EXPIRED METARs :
  • 230200Z AUTO 35005KT 9999 NCD 21/19 Q1020
  • 230130Z AUTO 02003KT 350V060 9999 NCD 21/19 Q1020
  • 230100Z AUTO 07004KT 9999 NCD 21/20 Q1020
  • 230030Z AUTO VRB02KT 9999 NCD 22/20 Q1020
  • 230000Z AUTO 29006KT 9999 NCD 23/20 Q1020

TAF TAF LERS
Valid from the 23 at 03:00 until the 24 at 03:00 UTC


230200Z 2303/2403 VRB04KT 9999 FEW030 TX30/2313Z TN19/2305Z
BECMG 2309/2311 14010KT
BECMG 2318/2320 VRB04KT
No reported NOTAMs for that airfield.



MET'MAP, your aeronautical weather chart ! - Copyright ORBIFLY December 2007 - Disclaimer

ORBIFLY MET'MAP TEAM :

Programming & Development : Alexandra Zaïnal
Concept & Development : Baudouin d'Aumeries
Co-Development & Prog : Marc-Olivier Méhu
Technical & hardware support : Manuel Goepfert

Contact : metmap@orbifly.com




SOURCES & CREDITS :

   NOAA